createdAt,value
2018-12-10T00:00:43.634Z,6.43
2018-12-10T00:01:43.587Z,6.38
2018-12-10T00:02:43.534Z,6.47
2018-12-10T00:03:43.529Z,6.39
2018-12-10T00:04:43.502Z,6.43
2018-12-10T00:05:43.552Z,6.38
2018-12-10T00:06:43.480Z,6.44
2018-12-10T00:07:43.558Z,6.36
2018-12-10T00:08:43.470Z,6.35
2018-12-10T00:09:43.465Z,6.34
2018-12-10T00:10:43.429Z,6.35
2018-12-10T00:11:43.485Z,6.39
2018-12-10T00:12:43.437Z,6.26
2018-12-10T00:13:43.451Z,6.29
2018-12-10T00:14:43.462Z,6.22
2018-12-10T00:15:43.383Z,6.28
2018-12-10T00:16:43.372Z,6.28
2018-12-10T00:17:43.363Z,6.19
2018-12-10T00:18:43.370Z,6.17
2018-12-10T00:19:43.324Z,6.17
2018-12-10T00:20:43.321Z,6.25
2018-12-10T00:21:43.281Z,6.15
2018-12-10T00:22:43.308Z,6.22
2018-12-10T00:23:43.310Z,6.22
2018-12-10T00:24:43.295Z,6.22
2018-12-10T00:25:43.300Z,6.17
2018-12-10T00:26:43.278Z,6.16
2018-12-10T00:27:43.236Z,6.13
2018-12-10T00:28:43.286Z,6.22
2018-12-10T00:29:43.208Z,6.20
2018-12-10T00:30:43.208Z,6.20
2018-12-10T00:31:43.286Z,6.07
2018-12-10T00:32:43.264Z,6.16
2018-12-10T00:33:43.172Z,6.17
2018-12-10T00:34:43.169Z,6.13
2018-12-10T00:35:43.149Z,6.15
2018-12-10T00:36:43.174Z,6.15
2018-12-10T00:37:43.139Z,6.15
2018-12-10T00:38:43.130Z,6.19
2018-12-10T00:39:43.127Z,6.05
2018-12-10T00:40:43.190Z,6.05
2018-12-10T00:41:43.085Z,6.02
2018-12-10T00:42:43.067Z,6.06
2018-12-10T00:43:43.055Z,6.01
2018-12-10T00:44:43.050Z,6.01
2018-12-10T00:45:43.076Z,5.94
2018-12-10T00:46:43.046Z,5.98
2018-12-10T00:47:43.057Z,5.95
2018-12-10T00:48:43.030Z,5.99
2018-12-10T00:49:42.993Z,5.95
2018-12-10T00:50:42.981Z,5.94
2018-12-10T00:51:42.982Z,5.92
2018-12-10T00:52:42.964Z,6.06
2018-12-10T00:53:42.968Z,5.98
2018-12-10T00:54:42.957Z,5.98
2018-12-10T00:55:42.939Z,5.88
2018-12-10T00:56:42.929Z,5.97
2018-12-10T00:57:42.940Z,6.05
2018-12-10T00:58:42.921Z,5.95
2018-12-10T00:59:42.879Z,5.95
2018-12-10T01:00:42.901Z,5.97
2018-12-10T01:01:42.880Z,5.88
2018-12-10T01:02:42.909Z,6.01
2018-12-10T01:03:42.836Z,5.98
2018-12-10T01:04:42.842Z,5.92
2018-12-10T01:05:42.839Z,5.91
2018-12-10T01:06:42.858Z,6.01
2018-12-10T01:07:42.801Z,5.88
2018-12-10T01:08:42.841Z,6.02
2018-12-10T01:09:42.798Z,5.98
2018-12-10T01:10:51.815Z,5.94
2018-12-10T01:11:42.784Z,5.97
2018-12-10T01:12:51.840Z,5.92
2018-12-10T01:13:42.748Z,5.94
2018-12-10T01:14:42.742Z,5.88
2018-12-10T01:15:42.751Z,5.84
2018-12-10T01:16:42.685Z,5.83
2018-12-10T01:17:42.690Z,5.74
2018-12-10T01:18:42.675Z,5.77
2018-12-10T01:19:42.668Z,5.73
2018-12-10T01:20:42.683Z,5.77
2018-12-10T01:23:00.062Z,5.74
2018-12-10T01:24:00.029Z,5.73
2018-12-10T01:25:00.013Z,5.80
2018-12-10T01:26:00.019Z,5.79
2018-12-10T01:27:00.045Z,5.79
2018-12-10T01:28:00.018Z,5.74
2018-12-10T01:28:59.996Z,5.74
2018-12-10T01:30:00.022Z,5.79
2018-12-10T01:30:59.994Z,5.77
2018-12-10T01:31:59.945Z,5.79
2018-12-10T01:32:59.957Z,5.79
2018-12-10T01:33:59.930Z,5.80
2018-12-10T01:34:59.930Z,5.69
2018-12-10T01:36:00.075Z,5.70
2018-12-10T01:36:59.901Z,5.74
2018-12-10T01:37:59.896Z,5.67
2018-12-10T01:38:59.890Z,5.62
2018-12-10T01:39:59.918Z,5.58
2018-12-10T01:40:59.917Z,5.56
2018-12-10T01:41:59.856Z,5.64
2018-12-10T01:42:59.856Z,5.54
2018-12-10T01:43:59.841Z,5.54
2018-12-10T01:44:59.831Z,5.47
2018-12-10T01:45:59.801Z,5.47
2018-12-10T01:46:59.780Z,5.51
2018-12-10T01:47:59.799Z,5.40
2018-12-10T01:48:59.770Z,5.49
2018-12-10T01:49:59.800Z,5.44
2018-12-10T01:50:59.779Z,5.37
2018-12-10T01:51:59.747Z,5.49
2018-12-10T01:52:59.740Z,5.38
2018-12-10T01:53:59.750Z,5.40
2018-12-10T01:54:59.705Z,5.40
2018-12-10T01:55:59.731Z,5.38
2018-12-10T01:56:59.678Z,5.36
2018-12-10T01:57:59.680Z,5.41
2018-12-10T01:58:59.667Z,5.28
2018-12-10T01:59:59.665Z,5.31
2018-12-10T02:00:59.663Z,5.37
2018-12-10T02:01:59.654Z,5.38
2018-12-10T02:02:59.662Z,5.36
2018-12-10T02:03:59.619Z,5.46
2018-12-10T02:04:59.592Z,5.38
2018-12-10T02:05:59.597Z,5.51
2018-12-10T02:06:59.604Z,5.43
2018-12-10T02:07:59.576Z,5.47
2018-12-10T02:08:59.562Z,5.56
2018-12-10T02:09:59.580Z,5.56
2018-12-10T02:10:59.535Z,5.56
2018-12-10T02:11:59.592Z,5.54
2018-12-10T02:12:59.551Z,5.52
2018-12-10T02:13:59.517Z,5.52
2018-12-10T02:14:59.494Z,5.55
2018-12-10T02:15:59.511Z,5.51
2018-12-10T02:16:59.510Z,5.52
2018-12-10T02:17:59.469Z,5.69
2018-12-10T02:18:59.470Z,5.64
2018-12-10T02:19:59.456Z,5.56
2018-12-10T02:20:59.443Z,5.58
2018-12-10T02:21:59.410Z,5.56
2018-12-10T02:22:59.402Z,5.47
2018-12-10T02:23:59.414Z,5.54
2018-12-10T02:24:59.396Z,5.49
2018-12-10T02:25:59.375Z,5.51
2018-12-10T02:26:59.394Z,5.52
2018-12-10T02:27:59.371Z,5.55
2018-12-10T02:28:59.381Z,5.46
2018-12-10T02:29:59.422Z,5.49
2018-12-10T02:30:59.335Z,5.54
2018-12-10T02:31:59.329Z,5.47
2018-12-10T02:32:59.333Z,5.47
2018-12-10T02:33:59.294Z,5.52
2018-12-10T02:34:59.330Z,5.51
2018-12-10T02:35:59.280Z,5.55
2018-12-10T02:36:59.260Z,5.55
2018-12-10T02:37:59.253Z,5.52
2018-12-10T02:38:59.264Z,5.58
2018-12-10T02:39:59.215Z,5.54
2018-12-10T02:40:59.222Z,5.54
2018-12-10T02:41:59.217Z,5.58
2018-12-10T02:42:59.192Z,5.49
2018-12-10T02:43:59.194Z,5.58
2018-12-10T02:44:59.196Z,5.55
2018-12-10T02:45:59.208Z,5.65
2018-12-10T02:46:59.156Z,5.51
2018-12-10T02:47:59.172Z,5.58
2018-12-10T02:48:59.145Z,5.47
2018-12-10T02:49:59.177Z,5.56
2018-12-10T02:50:59.112Z,5.55
2018-12-10T02:51:59.128Z,5.65
2018-12-10T02:52:59.093Z,5.51
2018-12-10T02:53:59.104Z,5.47
2018-12-10T02:54:59.084Z,5.40
2018-12-10T02:55:59.101Z,5.49
2018-12-10T02:56:59.059Z,5.49
2018-12-10T02:57:59.059Z,5.47
2018-12-10T02:58:59.032Z,5.51
2018-12-10T02:59:59.043Z,5.54
2018-12-10T03:00:59.019Z,5.52
2018-12-10T03:01:59.035Z,5.55
2018-12-10T03:02:59.016Z,5.46
2018-12-10T03:03:58.992Z,5.38
2018-12-10T03:04:58.971Z,5.43
2018-12-10T03:05:58.973Z,5.46
2018-12-10T03:06:58.980Z,5.37
2018-12-10T03:07:58.979Z,5.36
2018-12-10T03:08:58.920Z,5.40
2018-12-10T03:09:58.932Z,5.40
2018-12-10T03:10:59.059Z,5.46
2018-12-10T03:11:58.910Z,5.51
2018-12-10T03:12:58.878Z,5.46
2018-12-10T03:13:58.873Z,5.46
2018-12-10T03:14:58.893Z,5.43
2018-12-10T03:15:58.862Z,5.44
2018-12-10T03:16:58.860Z,5.54
2018-12-10T03:17:58.825Z,5.40
2018-12-10T03:18:58.910Z,5.34
2018-12-10T03:19:58.796Z,5.38
2018-12-10T03:20:58.816Z,5.36
2018-12-10T03:21:58.820Z,5.41
2018-12-10T03:22:58.831Z,5.34
2018-12-10T03:23:58.754Z,5.40
2018-12-10T03:24:58.751Z,5.38
2018-12-10T03:25:58.745Z,5.38
2018-12-10T03:26:58.772Z,5.43
2018-12-10T03:27:58.762Z,5.43
2018-12-10T03:28:58.780Z,5.40
2018-12-10T03:29:58.731Z,5.41
2018-12-10T03:30:58.705Z,5.36
2018-12-10T03:31:58.799Z,5.41
2018-12-10T03:32:58.694Z,5.40
2018-12-10T03:33:58.719Z,5.51
2018-12-10T03:34:58.653Z,5.43
2018-12-10T03:35:58.631Z,5.49
2018-12-10T03:36:58.627Z,5.44
2018-12-10T03:37:58.779Z,5.47
2018-12-10T03:38:58.589Z,5.47
2018-12-10T03:39:58.614Z,5.43
2018-12-10T03:40:58.585Z,5.41
2018-12-10T03:41:58.591Z,5.49
2018-12-10T03:42:58.573Z,5.49
2018-12-10T03:43:58.549Z,5.51
2018-12-10T03:44:58.550Z,5.49
2018-12-10T03:45:58.629Z,5.34
2018-12-10T03:46:58.567Z,5.38
2018-12-10T03:47:58.598Z,5.38
2018-12-10T03:48:59.414Z,5.38
2018-12-10T03:49:58.589Z,5.36
2018-12-10T03:51:02.459Z,5.37
2018-12-10T03:51:58.459Z,5.36
2018-12-10T03:52:58.462Z,5.36
2018-12-10T03:53:58.443Z,5.40
2018-12-10T03:54:58.474Z,5.33
2018-12-10T03:55:58.412Z,5.38
2018-12-10T03:56:58.474Z,5.40
2018-12-10T03:57:58.403Z,5.47
2018-12-10T03:58:58.938Z,5.44
2018-12-10T03:59:58.411Z,5.52
2018-12-10T04:00:58.440Z,5.43
2018-12-10T04:01:58.417Z,5.41
2018-12-10T04:02:58.340Z,5.47
2018-12-10T04:03:58.331Z,5.47
2018-12-10T04:04:58.942Z,5.47
2018-12-10T04:05:58.313Z,5.46
2018-12-10T04:06:58.318Z,5.46
2018-12-10T04:07:59.351Z,5.46
2018-12-10T04:08:58.268Z,5.46
2018-12-10T04:09:58.277Z,5.46
2018-12-10T04:10:58.285Z,5.47
2018-12-10T04:11:58.279Z,5.46
2018-12-10T04:12:58.293Z,5.51
2018-12-10T04:13:58.214Z,5.47
2018-12-10T04:14:58.229Z,5.46
2018-12-10T04:15:58.196Z,5.52
2018-12-10T04:16:58.218Z,5.47
2018-12-10T04:17:58.234Z,5.44
2018-12-10T04:18:58.199Z,5.54
2018-12-10T04:19:58.156Z,5.49
2018-12-10T04:20:58.155Z,5.40
2018-12-10T04:21:58.203Z,5.40
2018-12-10T04:22:58.146Z,5.38
2018-12-10T04:23:58.132Z,5.40
2018-12-10T04:24:58.107Z,5.34
2018-12-10T04:25:58.138Z,5.43
2018-12-10T04:26:58.086Z,5.37
2018-12-10T04:27:58.089Z,5.49
2018-12-10T04:28:58.103Z,5.43
2018-12-10T04:29:58.058Z,5.37
2018-12-10T04:30:58.073Z,5.40
2018-12-10T04:31:58.045Z,5.37
2018-12-10T04:32:58.070Z,5.49
2018-12-10T04:33:58.020Z,5.40
2018-12-10T04:34:57.996Z,5.33
2018-12-10T04:35:58.215Z,5.41
2018-12-10T04:36:58.106Z,5.41
2018-12-10T04:37:57.973Z,5.41
2018-12-10T04:38:57.973Z,5.40
2018-12-10T04:39:58.000Z,5.40
2018-12-10T04:40:57.942Z,5.41
2018-12-10T04:41:57.936Z,5.36
2018-12-10T04:42:57.929Z,5.34
2018-12-10T04:44:06.963Z,5.38
2018-12-10T04:44:57.890Z,5.38
2018-12-10T04:45:57.870Z,5.40
2018-12-10T04:46:57.890Z,5.36
2018-12-10T04:47:57.852Z,5.41
2018-12-10T04:48:57.837Z,5.47
2018-12-10T04:49:57.846Z,5.41
2018-12-10T04:51:07.988Z,5.44
2018-12-10T04:51:57.840Z,5.44
2018-12-10T04:53:07.015Z,5.41
2018-12-10T04:54:07.084Z,5.37
2018-12-10T04:54:57.780Z,5.51
2018-12-10T04:55:57.767Z,5.40
2018-12-10T04:56:57.744Z,5.44
2018-12-10T04:57:57.760Z,5.47
2018-12-10T04:58:57.745Z,5.40
2018-12-10T05:00:08.426Z,5.43
2018-12-10T05:00:57.703Z,5.41
2018-12-10T05:01:57.706Z,5.44
2018-12-10T05:02:57.739Z,5.43
2018-12-10T05:03:57.696Z,5.47
2018-12-10T05:04:57.710Z,5.38
2018-12-10T05:05:57.652Z,5.46
2018-12-10T05:06:57.644Z,5.46
2018-12-10T05:07:57.632Z,5.41
2018-12-10T05:08:57.658Z,5.37
2018-12-10T05:09:57.617Z,5.43
2018-12-10T05:10:57.612Z,5.49
2018-12-10T05:12:07.094Z,5.38
2018-12-10T05:13:06.659Z,5.51
2018-12-10T05:14:06.184Z,5.38
2018-12-10T05:14:57.571Z,5.52
2018-12-10T05:16:09.199Z,5.52
2018-12-10T05:17:06.783Z,5.51
2018-12-10T05:18:06.812Z,5.52
2018-12-10T05:19:06.309Z,5.47
2018-12-10T05:21:14.922Z,5.49
2018-12-10T05:22:14.907Z,5.43
2018-12-10T05:23:24.312Z,5.51
2018-12-10T05:24:14.955Z,5.44
2018-12-10T05:25:14.889Z,5.49
2018-12-10T05:26:14.850Z,5.51
2018-12-10T05:27:14.884Z,5.44
2018-12-10T05:28:14.850Z,5.46
2018-12-10T05:29:14.827Z,5.47
2018-12-10T05:30:14.871Z,5.52
2018-12-10T05:31:14.813Z,5.52
2018-12-10T05:32:14.820Z,5.40
2018-12-10T05:33:14.782Z,5.43
2018-12-10T05:34:14.790Z,5.46
2018-12-10T05:35:14.759Z,5.46
2018-12-10T05:36:14.798Z,5.47
2018-12-10T05:37:14.744Z,5.46
2018-12-10T05:38:14.727Z,5.40
2018-12-10T05:39:24.842Z,5.38
2018-12-10T05:40:23.877Z,5.37
2018-12-10T05:42:32.115Z,5.47
2018-12-10T05:43:41.514Z,5.31
2018-12-10T05:44:32.106Z,5.47
2018-12-10T05:45:32.080Z,5.43
2018-12-10T05:46:32.087Z,5.36
2018-12-10T05:47:32.078Z,5.44
2018-12-10T05:48:32.030Z,5.37
2018-12-10T05:49:32.031Z,5.43
2018-12-10T05:50:32.052Z,5.40
2018-12-10T05:51:32.093Z,5.41
2018-12-10T05:52:41.042Z,5.40
2018-12-10T05:53:31.983Z,5.47
2018-12-10T05:54:31.981Z,5.44
2018-12-10T05:55:32.002Z,5.49
2018-12-10T05:56:32.024Z,5.34
2018-12-10T05:57:31.972Z,5.33
2018-12-10T05:58:31.974Z,5.36
2018-12-10T05:59:31.960Z,5.44
2018-12-10T06:00:31.924Z,5.40
2018-12-10T06:01:31.900Z,5.37
2018-12-10T06:02:31.920Z,5.43
2018-12-10T06:03:31.920Z,5.29
2018-12-10T06:04:31.895Z,5.34
2018-12-10T06:05:31.867Z,5.34
2018-12-10T06:06:31.862Z,5.38
2018-12-10T06:07:31.851Z,5.41
2018-12-10T06:08:31.827Z,5.37
2018-12-10T06:09:31.842Z,5.33
2018-12-10T06:10:31.841Z,5.36
2018-12-10T06:11:31.806Z,5.34
2018-12-10T06:12:31.796Z,5.29
2018-12-10T06:13:31.797Z,5.36
2018-12-10T06:14:31.779Z,5.29
2018-12-10T06:15:31.814Z,5.33
2018-12-10T06:16:31.812Z,5.34
2018-12-10T06:17:31.744Z,5.38
2018-12-10T06:18:31.905Z,5.34
2018-12-10T06:19:31.742Z,5.33
2018-12-10T06:20:31.731Z,5.25
2018-12-10T06:21:31.709Z,5.36
2018-12-10T06:22:31.691Z,5.19
2018-12-10T06:23:31.732Z,5.31
2018-12-10T06:24:32.483Z,5.33
2018-12-10T06:25:31.976Z,5.19
2018-12-10T06:26:31.724Z,5.15
2018-12-10T06:27:31.719Z,5.20
2018-12-10T06:28:31.683Z,5.16
2018-12-10T06:29:31.915Z,5.15
2018-12-10T06:30:31.757Z,5.07
2018-12-10T06:31:31.736Z,5.07
2018-12-10T06:32:31.965Z,5.00
2018-12-10T06:33:31.725Z,5.01
2018-12-10T06:34:31.741Z,5.04
2018-12-10T06:35:31.760Z,5.04
2018-12-10T06:36:31.589Z,4.97
2018-12-10T06:37:37.510Z,4.98
2018-12-10T06:38:32.618Z,4.90
2018-12-10T06:39:31.557Z,4.97
2018-12-10T06:40:31.552Z,4.97
2018-12-10T06:41:31.597Z,4.97
2018-12-10T06:42:31.568Z,4.89
2018-12-10T06:43:31.495Z,4.90
2018-12-10T06:44:31.501Z,4.89
2018-12-10T06:45:32.487Z,4.87
2018-12-10T06:46:31.454Z,4.97
2018-12-10T06:47:31.456Z,4.89
2018-12-10T06:48:31.487Z,4.90
2018-12-10T06:49:31.489Z,4.87
2018-12-10T06:50:31.451Z,4.86
2018-12-10T06:51:31.435Z,4.92
2018-12-10T06:52:31.492Z,4.86
2018-12-10T06:53:31.396Z,4.89
2018-12-10T06:54:31.377Z,4.86
2018-12-10T06:55:31.374Z,4.71
2018-12-10T06:56:31.501Z,4.82
2018-12-10T06:57:31.569Z,4.78
2018-12-10T06:58:31.391Z,4.75
2018-12-10T06:59:31.396Z,4.76
2018-12-10T07:00:31.436Z,4.84
2018-12-10T07:01:31.313Z,4.82
2018-12-10T07:02:31.309Z,4.70
2018-12-10T07:03:31.306Z,4.70
2018-12-10T07:04:31.312Z,4.76
2018-12-10T07:05:31.255Z,4.70
2018-12-10T07:06:31.280Z,4.70
2018-12-10T07:07:31.237Z,4.63
2018-12-10T07:08:31.220Z,4.57
2018-12-10T07:09:31.226Z,4.61
2018-12-10T07:10:31.234Z,4.57
2018-12-10T07:11:31.192Z,4.56
2018-12-10T07:12:31.263Z,4.61
2018-12-10T07:13:31.210Z,4.61
2018-12-10T07:14:31.189Z,4.58
2018-12-10T07:15:31.173Z,4.60
2018-12-10T07:16:31.174Z,4.61
2018-12-10T07:17:31.134Z,4.60
2018-12-10T07:18:31.142Z,4.58
2018-12-10T07:19:31.114Z,4.61
2018-12-10T07:20:31.160Z,4.63
2018-12-10T07:21:31.113Z,4.67
2018-12-10T07:22:31.097Z,4.70
2018-12-10T07:23:31.069Z,4.58
2018-12-10T07:24:31.076Z,4.61
2018-12-10T07:25:31.059Z,4.68
2018-12-10T07:26:31.040Z,4.70
2018-12-10T07:27:31.079Z,4.74
2018-12-10T07:28:31.011Z,4.78
2018-12-10T07:29:31.022Z,4.60
2018-12-10T07:30:31.014Z,4.66
2018-12-10T07:31:30.988Z,4.61
2018-12-10T07:32:31.023Z,4.61
2018-12-10T07:33:30.972Z,4.61
2018-12-10T07:34:30.969Z,4.75
2018-12-10T07:35:30.967Z,4.71
2018-12-10T07:36:31.061Z,4.74
2018-12-10T07:37:30.981Z,4.70
2018-12-10T07:38:30.938Z,4.70
2018-12-10T07:39:30.943Z,4.70
2018-12-10T07:40:30.878Z,4.83
2018-12-10T07:41:30.933Z,4.75
2018-12-10T07:42:30.902Z,4.82
2018-12-10T07:43:30.879Z,4.76
2018-12-10T07:44:30.923Z,4.84
2018-12-10T07:45:30.879Z,4.86
2018-12-10T07:46:30.933Z,4.86
2018-12-10T07:47:30.839Z,4.89
2018-12-10T07:48:30.911Z,4.95
2018-12-10T07:49:30.798Z,4.94
2018-12-10T07:50:31.332Z,4.98
2018-12-10T07:51:30.804Z,5.00
2018-12-10T07:52:30.865Z,4.98
2018-12-10T07:53:30.776Z,4.98
2018-12-10T07:54:30.745Z,5.05
2018-12-10T07:55:30.912Z,5.07
2018-12-10T07:56:30.757Z,5.05
2018-12-10T07:57:30.705Z,5.02
2018-12-10T07:58:30.733Z,4.98
2018-12-10T07:59:30.751Z,5.04
2018-12-10T08:00:30.702Z,5.13
2018-12-10T08:01:30.763Z,5.10
2018-12-10T08:02:30.813Z,5.08
2018-12-10T08:03:30.652Z,5.16
2018-12-10T08:04:30.649Z,5.20
2018-12-10T08:05:30.659Z,5.19
2018-12-10T08:06:30.607Z,5.16
2018-12-10T08:07:30.639Z,5.20
2018-12-10T08:08:30.707Z,5.31
2018-12-10T08:09:30.604Z,5.31
2018-12-10T08:10:30.592Z,5.28
2018-12-10T08:11:30.621Z,5.31
2018-12-10T08:12:30.586Z,5.38
2018-12-10T08:13:30.572Z,5.29
2018-12-10T08:14:30.587Z,5.29
2018-12-10T08:15:30.531Z,5.28
2018-12-10T08:16:30.548Z,5.25
2018-12-10T08:17:30.597Z,5.23
2018-12-10T08:18:30.560Z,5.28
2018-12-10T08:19:30.536Z,5.15
2018-12-10T08:20:30.533Z,5.15
2018-12-10T08:21:30.452Z,5.15
2018-12-10T08:22:30.465Z,5.05
2018-12-10T08:23:30.545Z,5.08
2018-12-10T08:24:30.466Z,4.95
2018-12-10T08:25:30.419Z,5.01
2018-12-10T08:26:30.441Z,5.00
2018-12-10T08:27:30.474Z,4.97
2018-12-10T08:28:30.399Z,4.92
2018-12-10T08:29:30.420Z,4.82
2018-12-10T08:30:30.411Z,4.83
2018-12-10T08:31:30.470Z,4.82
2018-12-10T08:32:30.342Z,4.79
2018-12-10T08:33:30.390Z,4.78
2018-12-10T08:34:30.354Z,4.84
2018-12-10T08:35:30.430Z,4.74
2018-12-10T08:36:30.341Z,4.70
2018-12-10T08:37:30.291Z,4.71
2018-12-10T08:38:30.306Z,4.70
2018-12-10T08:39:30.269Z,4.66
2018-12-10T08:40:30.264Z,4.75
2018-12-10T08:41:30.381Z,4.74
2018-12-10T08:42:30.282Z,4.66
2018-12-10T08:43:30.282Z,4.68
2018-12-10T08:44:30.278Z,4.58
2018-12-10T08:45:30.209Z,4.57
2018-12-10T08:46:30.231Z,4.64
2018-12-10T08:47:30.249Z,4.70
2018-12-10T08:48:30.219Z,4.60
2018-12-10T08:49:30.207Z,4.66
2018-12-10T08:50:30.161Z,4.74
2018-12-10T08:51:30.153Z,4.74
2018-12-10T08:52:30.147Z,4.70
2018-12-10T08:53:30.148Z,4.84
2018-12-10T08:54:30.195Z,4.76
2018-12-10T08:55:30.209Z,4.82
2018-12-10T08:56:30.087Z,4.89
2018-12-10T08:57:30.136Z,4.79
2018-12-10T08:58:30.074Z,4.71
2018-12-10T08:59:30.113Z,4.71
2018-12-10T09:00:30.080Z,4.76
2018-12-10T09:01:30.078Z,4.74
2018-12-10T09:02:30.021Z,4.82
2018-12-10T09:03:30.061Z,4.89
2018-12-10T09:04:30.125Z,4.95
2018-12-10T09:05:30.978Z,4.97
2018-12-10T09:06:29.995Z,5.07
2018-12-10T09:07:29.975Z,5.04
2018-12-10T09:08:30.053Z,5.07
2018-12-10T09:09:29.980Z,5.05
2018-12-10T09:10:30.016Z,5.12
2018-12-10T09:11:30.063Z,5.04
2018-12-10T09:12:29.988Z,5.16
2018-12-10T09:13:29.934Z,5.12
2018-12-10T09:14:29.921Z,5.07
2018-12-10T09:15:29.954Z,5.05
2018-12-10T09:16:29.931Z,5.02
2018-12-10T09:17:30.009Z,5.10
2018-12-10T09:18:29.860Z,5.16
2018-12-10T09:19:29.883Z,5.16
2018-12-10T09:20:38.606Z,5.20
2018-12-10T09:21:39.597Z,5.36
2018-12-10T09:22:29.889Z,5.26
2018-12-10T09:23:29.827Z,5.29
2018-12-10T09:24:29.804Z,5.41
2018-12-10T09:25:29.798Z,5.40
2018-12-10T09:26:29.780Z,5.41
2018-12-10T09:27:29.817Z,5.52
2018-12-10T09:28:29.787Z,5.51
2018-12-10T09:29:29.782Z,5.38
2018-12-10T09:30:29.787Z,5.38
2018-12-10T09:31:29.738Z,5.37
2018-12-10T09:32:29.777Z,5.36
2018-12-10T09:33:29.783Z,5.34
2018-12-10T09:34:29.714Z,5.37
2018-12-10T09:35:29.719Z,5.31
2018-12-10T09:36:29.709Z,5.26
2018-12-10T09:37:29.723Z,5.36
2018-12-10T09:38:29.691Z,5.43
2018-12-10T09:39:30.288Z,5.38
2018-12-10T09:40:29.650Z,5.44
2018-12-10T09:41:29.634Z,5.51
2018-12-10T09:42:29.619Z,5.51
2018-12-10T09:43:29.645Z,5.51
2018-12-10T09:44:29.685Z,5.64
2018-12-10T09:45:29.623Z,5.64
2018-12-10T09:46:29.598Z,5.56
2018-12-10T09:47:29.602Z,5.51
2018-12-10T09:48:29.592Z,5.46
2018-12-10T09:49:29.554Z,5.41
2018-12-10T09:50:29.622Z,5.46
2018-12-10T09:51:29.526Z,5.46
2018-12-10T09:52:29.547Z,5.55
2018-12-10T09:53:29.504Z,5.47
2018-12-10T09:54:29.525Z,5.47
2018-12-10T09:55:29.570Z,5.43
2018-12-10T09:56:29.483Z,5.51
2018-12-10T09:57:29.472Z,5.43
2018-12-10T09:58:29.464Z,5.40
2018-12-10T09:59:29.451Z,5.43
2018-12-10T10:00:29.427Z,5.36
2018-12-10T10:01:29.516Z,5.34
2018-12-10T10:02:29.454Z,5.40
2018-12-10T10:03:29.437Z,5.51
2018-12-10T10:04:29.431Z,5.51
2018-12-10T10:05:29.406Z,5.43
2018-12-10T10:06:29.344Z,5.49
2018-12-10T10:07:29.363Z,5.54
2018-12-10T10:08:29.342Z,5.55
2018-12-10T10:09:29.351Z,5.61
2018-12-10T10:10:29.343Z,5.70
2018-12-10T10:11:29.339Z,5.58
2018-12-10T10:12:29.354Z,5.61
2018-12-10T10:13:29.426Z,5.56
2018-12-10T10:14:29.295Z,5.52
2018-12-10T10:15:29.302Z,5.52
2018-12-10T10:16:29.293Z,5.69
2018-12-10T10:17:29.238Z,5.61
2018-12-10T10:18:29.226Z,5.74
2018-12-10T10:19:29.234Z,5.62
2018-12-10T10:20:29.217Z,5.79
2018-12-10T10:21:29.193Z,5.94
2018-12-10T10:22:29.190Z,5.94
2018-12-10T10:23:29.179Z,5.95
2018-12-10T10:24:29.183Z,5.80
2018-12-10T10:25:29.161Z,5.83
2018-12-10T10:26:29.149Z,5.80
2018-12-10T10:27:29.124Z,5.83
2018-12-10T10:28:29.145Z,5.77
2018-12-10T10:29:29.125Z,5.77
2018-12-10T10:30:29.118Z,5.73
2018-12-10T10:31:29.086Z,5.72
2018-12-10T10:32:29.084Z,5.77
2018-12-10T10:33:32.494Z,5.81
2018-12-10T10:34:29.059Z,5.80
2018-12-10T10:35:29.106Z,5.83
2018-12-10T10:36:29.080Z,5.87
2018-12-10T10:37:29.029Z,5.84
2018-12-10T10:38:29.021Z,5.90
2018-12-10T10:39:29.041Z,5.95
2018-12-10T10:40:29.034Z,5.87
2018-12-10T10:41:31.332Z,5.90
2018-12-10T10:42:28.974Z,5.92
2018-12-10T10:43:28.962Z,6.01
2018-12-10T10:44:28.984Z,6.06
2018-12-10T10:45:34.707Z,6.06
2018-12-10T10:46:29.997Z,5.88
2018-12-10T10:47:28.921Z,5.99
2018-12-10T10:48:28.912Z,6.02
2018-12-10T10:49:28.906Z,6.06
2018-12-10T10:50:28.895Z,6.05
2018-12-10T10:51:28.882Z,6.07
2018-12-10T10:52:33.160Z,6.13
2018-12-10T10:53:28.860Z,6.01
2018-12-10T10:54:29.078Z,6.07
2018-12-10T10:55:28.911Z,6.12
2018-12-10T10:56:28.961Z,6.15
2018-12-10T10:57:28.845Z,6.16
2018-12-10T10:58:28.831Z,6.06
2018-12-10T10:59:28.811Z,6.12
2018-12-10T11:00:28.821Z,6.17
2018-12-10T11:01:28.790Z,6.16
2018-12-10T11:02:28.755Z,6.10
2018-12-10T11:03:28.830Z,6.15
2018-12-10T11:04:37.085Z,6.15
2018-12-10T11:05:29.765Z,6.13
2018-12-10T11:06:28.743Z,6.02
2018-12-10T11:07:29.646Z,5.98
2018-12-10T11:08:28.733Z,5.97
2018-12-10T11:09:28.735Z,5.98
2018-12-10T11:10:28.701Z,6.01
2018-12-10T11:11:28.675Z,6.05
2018-12-10T11:12:28.679Z,6.12
2018-12-10T11:13:28.661Z,6.01
2018-12-10T11:14:28.630Z,6.05
2018-12-10T11:15:28.719Z,5.95
2018-12-10T11:16:28.635Z,5.97
2018-12-10T11:17:28.630Z,5.94
2018-12-10T11:18:28.662Z,5.92
2018-12-10T11:19:28.600Z,5.97
2018-12-10T11:20:28.624Z,6.02
2018-12-10T11:21:28.581Z,6.02
2018-12-10T11:22:28.554Z,5.98
2018-12-10T11:23:28.560Z,5.98
2018-12-10T11:24:28.557Z,6.01
2018-12-10T11:25:28.652Z,6.02
2018-12-10T11:26:28.590Z,6.16
2018-12-10T11:27:28.507Z,6.01
2018-12-10T11:28:28.482Z,5.99
2018-12-10T11:29:28.491Z,6.01
2018-12-10T11:30:28.550Z,5.99
2018-12-10T11:31:28.493Z,5.97
2018-12-10T11:32:28.461Z,5.83
2018-12-10T11:33:28.458Z,5.99
2018-12-10T11:34:28.430Z,6.01
2018-12-10T11:35:28.439Z,5.95
2018-12-10T11:36:28.408Z,5.80
2018-12-10T11:37:28.426Z,5.77
2018-12-10T11:38:28.462Z,5.80
2018-12-10T11:39:28.379Z,5.79
2018-12-10T11:40:28.404Z,5.87
2018-12-10T11:41:28.394Z,5.87
2018-12-10T11:42:28.360Z,5.87
2018-12-10T11:43:28.342Z,5.80
2018-12-10T11:44:28.331Z,5.87
2018-12-10T11:45:28.319Z,5.95
2018-12-10T11:46:28.372Z,5.97
2018-12-10T11:47:28.495Z,5.88
2018-12-10T11:48:28.308Z,5.94
2018-12-10T11:49:28.290Z,5.98
2018-12-10T11:50:28.261Z,5.91
2018-12-10T11:51:28.293Z,5.90
2018-12-10T11:52:28.239Z,5.98
2018-12-10T11:53:28.237Z,5.94
2018-12-10T11:54:28.260Z,5.91
2018-12-10T11:55:28.233Z,5.95
2018-12-10T11:56:28.247Z,5.87
2018-12-10T11:57:28.227Z,5.88
2018-12-10T11:58:28.191Z,5.94
2018-12-10T11:59:28.222Z,5.90
2018-12-10T12:00:29.608Z,5.87
2018-12-10T12:01:28.181Z,5.95
2018-12-10T12:02:29.842Z,5.87
2018-12-10T12:03:28.210Z,5.88
2018-12-10T12:04:28.140Z,5.94
2018-12-10T12:05:28.169Z,5.80
2018-12-10T12:06:28.114Z,5.74
2018-12-10T12:07:28.067Z,5.79
2018-12-10T12:08:28.084Z,5.80
2018-12-10T12:09:28.067Z,5.76
2018-12-10T12:10:28.076Z,5.73
2018-12-10T12:11:28.063Z,5.80
2018-12-10T12:12:28.064Z,5.80
2018-12-10T12:13:28.043Z,5.83
2018-12-10T12:14:28.010Z,5.61
2018-12-10T12:15:28.005Z,5.74
2018-12-10T12:16:27.992Z,5.67
2018-12-10T12:17:27.974Z,5.58
2018-12-10T12:18:28.019Z,5.64
2018-12-10T12:19:27.961Z,5.72
2018-12-10T12:20:28.853Z,5.70
2018-12-10T12:21:28.537Z,5.67
2018-12-10T12:22:28.372Z,5.70
2018-12-10T12:23:29.550Z,5.70
2018-12-10T12:24:27.960Z,5.72
2018-12-10T12:25:27.897Z,5.77
2018-12-10T12:26:27.906Z,5.69
2018-12-10T12:27:27.965Z,5.72
2018-12-10T12:28:27.875Z,5.69
2018-12-10T12:29:27.885Z,5.69
2018-12-10T12:30:27.852Z,5.65
2018-12-10T12:31:27.840Z,5.74
2018-12-10T12:32:27.840Z,5.84
2018-12-10T12:33:27.834Z,5.84
2018-12-10T12:34:27.805Z,5.94
2018-12-10T12:35:27.813Z,5.91
2018-12-10T12:36:27.759Z,5.92
2018-12-10T12:37:27.761Z,5.97
2018-12-10T12:38:27.751Z,5.81
2018-12-10T12:39:27.743Z,5.79
2018-12-10T12:40:27.740Z,5.80
2018-12-10T12:41:27.767Z,5.84
2018-12-10T12:42:27.776Z,5.91
2018-12-10T12:43:27.756Z,5.94
2018-12-10T12:44:27.805Z,5.91
2018-12-10T12:45:27.684Z,5.91
2018-12-10T12:46:27.671Z,5.88
2018-12-10T12:47:27.655Z,5.74
2018-12-10T12:48:27.666Z,5.62
2018-12-10T12:49:27.876Z,5.70
2018-12-10T12:50:27.728Z,5.65
2018-12-10T12:51:27.605Z,5.58
2018-12-10T12:52:27.634Z,5.54
2018-12-10T12:53:27.609Z,5.46
2018-12-10T12:54:27.580Z,5.46
2018-12-10T12:55:27.566Z,5.34
2018-12-10T12:56:27.571Z,5.36
2018-12-10T12:57:27.524Z,5.20
2018-12-10T12:58:27.535Z,5.18
2018-12-10T12:59:27.573Z,5.07
2018-12-10T13:00:27.593Z,5.05
2018-12-10T13:01:27.611Z,5.05
2018-12-10T13:02:27.603Z,5.07
2018-12-10T13:03:27.472Z,5.05
2018-12-10T13:04:27.553Z,5.01
2018-12-10T13:05:27.507Z,5.04
2018-12-10T13:06:27.448Z,5.07
2018-12-10T13:07:27.540Z,5.07
2018-12-10T13:08:30.970Z,5.02
2018-12-10T13:09:27.440Z,5.02
2018-12-10T13:10:27.464Z,5.13
2018-12-10T13:11:27.427Z,5.15
2018-12-10T13:12:27.383Z,5.22
2018-12-10T13:13:27.396Z,5.25
2018-12-10T13:14:27.370Z,5.19
2018-12-10T13:15:27.365Z,5.34
2018-12-10T13:16:27.427Z,5.28
2018-12-10T13:17:27.352Z,5.37
2018-12-10T13:18:27.334Z,5.37
2018-12-10T13:19:27.342Z,5.56
2018-12-10T13:20:27.332Z,5.65
2018-12-10T13:21:27.296Z,5.54
2018-12-10T13:22:27.537Z,5.46